Abrela — EAVW — position and weather

sailwx.info

Track history (hours):
 
Tides and Currents Weather Stations Pressure Air Temp Water Temp Dewpoint Dewpoint Depression Visibility Wind Speed Wind Dir Waves Ship Positions

Abrela

Last reported at 2017-Mar-24 21:29 UTC. Time now 2017-Mar-25 01:50 UTC.
Position N 43°33' W 005°42'.

Length 30 m.

MMSI: 224204490.

Date/timePositionNaut miles runAvg speedWind from/ knotsBaromVisibWave heightAir tempDewpointWater temp
2017-Mar-24 21:29N 43°33' W 005°42'0 0.0
2017-Mar-24 20:33N 43°33' W 005°42'0 0.0
2017-Mar-24 19:33N 43°33' W 005°42'0 0.0
2017-Mar-24 18:33N 43°33' W 005°42'0 0.0
2017-Mar-24 17:33N 43°33' W 005°42'0 0.0
2017-Mar-24 16:33N 43°33' W 005°42'0 0.0
2017-Mar-24 15:33N 43°33' W 005°42'2 2.2
2017-Mar-24 14:32N 43°35' W 005°39'1010.2
2017-Mar-24 13:33N 43°44' W 005°34'5 1.3
2017-Mar-24 10:05N 43°47' W 005°38'3 1.7
2017-Mar-24 08:28N 43°47' W 005°42'1 1.3
2017-Mar-24 07:19N 43°48' W 005°44'2 2.3
2017-Mar-24 06:16N 43°49' W 005°47'9 3.3
2017-Mar-24 03:23N 43°40' W 005°42'5 5.4
2017-Mar-24 02:27N 43°35' W 005°40'2 1.9
2017-Mar-24 01:25N 43°33' W 005°42'2 0.5
2017-Mar-23 21:09N 43°35' W 005°40'2 2.7
2017-Mar-23 20:33N 43°37' W 005°39'3 3.1
2017-Mar-23 19:33N 43°40' W 005°39'7 6.0
2017-Mar-23 18:23N 43°47' W 005°40'6 1.4
2017-Mar-23 14:10N 43°47' W 005°32'4 2.4
2017-Mar-23 12:32N 43°49' W 005°36'8 1.9
2017-Mar-23 08:19N 43°52' W 005°47'2 1.8
2017-Mar-23 07:25N 43°52' W 005°49'12 3.7
2017-Mar-23 04:13N 43°41' W 005°44'5 7.3
2017-Mar-23 03:32N 43°36' W 005°41'3 3.0
2017-Mar-23 02:33N 43°33' W 005°42'0 0.0
2017-Mar-23 01:33N 43°33' W 005°42'0 0.0
2017-Mar-22 22:14N 43°33' W 005°42'0 0.0
2017-Mar-22 21:33N 43°33' W 005°42'0 0.0
2017-Mar-22 20:33N 43°33' W 005°42'0 0.0
2017-Mar-22 19:33N 43°33' W 005°42'0 0.0
2017-Mar-22 18:33N 43°33' W 005°42'0 0.0
2017-Mar-22 17:33N 43°33' W 005°42'0 0.0
2017-Mar-22 16:33N 43°33' W 005°42'0 0.0
2017-Mar-22 15:32N 43°33' W 005°42'0 0.0
2017-Mar-22 14:33N 43°33' W 005°42'0 0.0
2017-Mar-22 13:33N 43°33' W 005°42'0 0.0
2017-Mar-22 12:33N 43°33' W 005°42'0 0.0
2017-Mar-22 11:33N 43°33' W 005°42'0 0.0
2017-Mar-22 10:33N 43°33' W 005°42'0 0.0
2017-Mar-22 09:33N 43°33' W 005°42'0 0.0
2017-Mar-22 08:33N 43°33' W 005°42'0 0.1
2017-Mar-22 07:17N 43°33' W 005°42'0 0.0
2017-Mar-22 06:33N 43°33' W 005°42'0 0.0
2017-Mar-22 05:33N 43°33' W 005°42'0 0.0
2017-Mar-22 04:33N 43°33' W 005°42'0 0.0
2017-Mar-22 03:33N 43°33' W 005°42'0 0.0
2017-Mar-22 02:32N 43°33' W 005°42'0 0.0
2017-Mar-22 01:33N 43°33' W 005°42'2 1.6
2017-Mar-22 00:30N 43°34' W 005°40'14 4.8
2017-Mar-21 21:29N 43°46' W 005°28'7 2.1
2017-Mar-21 18:04N 43°44' W 005°37'5 4.9
2017-Mar-21 17:03N 43°40' W 005°40'510.1
2017-Mar-21 16:33N 43°35' W 005°40'2 1.7
2017-Mar-21 15:33N 43°33' W 005°42'0 0.0
2017-Mar-21 14:32N 43°33' W 005°42'2 2.5
2017-Mar-21 13:33N 43°34' W 005°39'2 1.8
2017-Mar-21 12:33N 43°36' W 005°37'6 5.7
2017-Mar-21 11:33N 43°41' W 005°33'6 6.2
2017-Mar-21 10:33N 43°46' W 005°29'1 0.7
2017-Mar-21 08:30N 43°46' W 005°27'4 1.0
2017-Mar-21 04:25N 43°41' W 005°28'8 9.7
2017-Mar-21 03:33N 43°36' W 005°37'4 4.5
2017-Mar-21 02:33N 43°33' W 005°42'0 0.0
2017-Mar-20 20:33N 43°33' W 005°42'0 0.0
2017-Mar-20 19:31N 43°33' W 005°42'0 0.0
2017-Mar-20 18:31N 43°33' W 005°42'0 0.4
2017-Mar-20 17:33N 43°34' W 005°41'1 1.3
2017-Mar-20 16:31N 43°34' W 005°40'8 7.8
2017-Mar-20 15:33N 43°40' W 005°33'10 9.5
2017-Mar-20 14:32N 43°47' W 005°24'9 0.8
2017-Mar-20 03:31N 43°38' W 005°22'8 8.2
2017-Mar-20 02:33N 43°36' W 005°33'7 7.0
2017-Mar-20 01:33N 43°33' W 005°42'0 0.0
2017-Mar-17 22:16N 43°33' W 005°42'0 0.1
2017-Mar-17 21:31N 43°33' W 005°42'0 0.0
2017-Mar-17 20:33N 43°33' W 005°42'0 0.0
2017-Mar-17 19:33N 43°33' W 005°42'0 0.0
2017-Mar-17 18:33N 43°33' W 005°42'23 5.6
2017-Mar-17 14:30N 43°41' W 005°12'143 4.9
2017-Mar-16 09:19N 43°41' W 001°55'1 1.4
2017-Mar-16 08:33N 43°42' W 001°56'2 1.1
2017-Mar-16 06:26N 43°44' W 001°57'20 4.0
2017-Mar-16 01:18N 43°23' W 001°56'6 0.8
2017-Mar-15 17:29N 43°29' W 002°00'5 4.8
2017-Mar-15 16:30N 43°33' W 002°01'  
Track history (hours):
 
Tides and Currents Weather Stations Pressure Air Temp Water Temp Dewpoint Dewpoint Depression Visibility Wind Speed Wind Dir Waves Ship Positions

Abrela

Last reported at 2017-Mar-24 21:29 UTC. Time now 2017-Mar-25 01:50 UTC.
Position N 43°33' W 005°42'.

Length 30 m.

MMSI: 224204490.

Date/timePositionNaut miles runAvg speedWind from/ knotsBaromVisibWave heightAir tempDewpointWater temp
2017-Mar-24 21:29N 43°33' W 005°42'0 0.0
2017-Mar-24 20:33N 43°33' W 005°42'0 0.0
2017-Mar-24 19:33N 43°33' W 005°42'0 0.0
2017-Mar-24 18:33N 43°33' W 005°42'0 0.0
2017-Mar-24 17:33N 43°33' W 005°42'0 0.0
2017-Mar-24 16:33N 43°33' W 005°42'0 0.0
2017-Mar-24 15:33N 43°33' W 005°42'2 2.2
2017-Mar-24 14:32N 43°35' W 005°39'1010.2
2017-Mar-24 13:33N 43°44' W 005°34'5 1.3
2017-Mar-24 10:05N 43°47' W 005°38'3 1.7
2017-Mar-24 08:28N 43°47' W 005°42'1 1.3
2017-Mar-24 07:19N 43°48' W 005°44'2 2.3
2017-Mar-24 06:16N 43°49' W 005°47'9 3.3
2017-Mar-24 03:23N 43°40' W 005°42'5 5.4
2017-Mar-24 02:27N 43°35' W 005°40'2 1.9
2017-Mar-24 01:25N 43°33' W 005°42'2 0.5
2017-Mar-23 21:09N 43°35' W 005°40'2 2.7
2017-Mar-23 20:33N 43°37' W 005°39'3 3.1
2017-Mar-23 19:33N 43°40' W 005°39'7 6.0
2017-Mar-23 18:23N 43°47' W 005°40'6 1.4
2017-Mar-23 14:10N 43°47' W 005°32'4 2.4
2017-Mar-23 12:32N 43°49' W 005°36'8 1.9
2017-Mar-23 08:19N 43°52' W 005°47'2 1.8
2017-Mar-23 07:25N 43°52' W 005°49'12 3.7
2017-Mar-23 04:13N 43°41' W 005°44'5 7.3
2017-Mar-23 03:32N 43°36' W 005°41'3 3.0
2017-Mar-23 02:33N 43°33' W 005°42'0 0.0
2017-Mar-23 01:33N 43°33' W 005°42'0 0.0
2017-Mar-22 22:14N 43°33' W 005°42'0 0.0
2017-Mar-22 21:33N 43°33' W 005°42'0 0.0
2017-Mar-22 20:33N 43°33' W 005°42'0 0.0
2017-Mar-22 19:33N 43°33' W 005°42'0 0.0
2017-Mar-22 18:33N 43°33' W 005°42'0 0.0
2017-Mar-22 17:33N 43°33' W 005°42'0 0.0
2017-Mar-22 16:33N 43°33' W 005°42'0 0.0
2017-Mar-22 15:32N 43°33' W 005°42'0 0.0
2017-Mar-22 14:33N 43°33' W 005°42'0 0.0
2017-Mar-22 13:33N 43°33' W 005°42'0 0.0
2017-Mar-22 12:33N 43°33' W 005°42'0 0.0
2017-Mar-22 11:33N 43°33' W 005°42'0 0.0
2017-Mar-22 10:33N 43°33' W 005°42'0 0.0
2017-Mar-22 09:33N 43°33' W 005°42'0 0.0
2017-Mar-22 08:33N 43°33' W 005°42'0 0.1
2017-Mar-22 07:17N 43°33' W 005°42'0 0.0
2017-Mar-22 06:33N 43°33' W 005°42'0 0.0
2017-Mar-22 05:33N 43°33' W 005°42'0 0.0
2017-Mar-22 04:33N 43°33' W 005°42'0 0.0
2017-Mar-22 03:33N 43°33' W 005°42'0 0.0
2017-Mar-22 02:32N 43°33' W 005°42'0 0.0
2017-Mar-22 01:33N 43°33' W 005°42'2 1.6
2017-Mar-22 00:30N 43°34' W 005°40'14 4.8
2017-Mar-21 21:29N 43°46' W 005°28'7 2.1
2017-Mar-21 18:04N 43°44' W 005°37'5 4.9
2017-Mar-21 17:03N 43°40' W 005°40'510.1
2017-Mar-21 16:33N 43°35' W 005°40'2 1.7
2017-Mar-21 15:33N 43°33' W 005°42'0 0.0
2017-Mar-21 14:32N 43°33' W 005°42'2 2.5
2017-Mar-21 13:33N 43°34' W 005°39'2 1.8
2017-Mar-21 12:33N 43°36' W 005°37'6 5.7
2017-Mar-21 11:33N 43°41' W 005°33'6 6.2
2017-Mar-21 10:33N 43°46' W 005°29'1 0.7
2017-Mar-21 08:30N 43°46' W 005°27'4 1.0
2017-Mar-21 04:25N 43°41' W 005°28'8 9.7
2017-Mar-21 03:33N 43°36' W 005°37'4 4.5
2017-Mar-21 02:33N 43°33' W 005°42'0 0.0
2017-Mar-20 20:33N 43°33' W 005°42'0 0.0
2017-Mar-20 19:31N 43°33' W 005°42'0 0.0
2017-Mar-20 18:31N 43°33' W 005°42'0 0.4
2017-Mar-20 17:33N 43°34' W 005°41'1 1.3
2017-Mar-20 16:31N 43°34' W 005°40'8 7.8
2017-Mar-20 15:33N 43°40' W 005°33'10 9.5
2017-Mar-20 14:32N 43°47' W 005°24'9 0.8
2017-Mar-20 03:31N 43°38' W 005°22'8 8.2
2017-Mar-20 02:33N 43°36' W 005°33'7 7.0
2017-Mar-20 01:33N 43°33' W 005°42'0 0.0
2017-Mar-17 22:16N 43°33' W 005°42'0 0.1
2017-Mar-17 21:31N 43°33' W 005°42'0 0.0
2017-Mar-17 20:33N 43°33' W 005°42'0 0.0
2017-Mar-17 19:33N 43°33' W 005°42'0 0.0
2017-Mar-17 18:33N 43°33' W 005°42'23 5.6
2017-Mar-17 14:30N 43°41' W 005°12'143 4.9
2017-Mar-16 09:19N 43°41' W 001°55'1 1.4
2017-Mar-16 08:33N 43°42' W 001°56'2 1.1
2017-Mar-16 06:26N 43°44' W 001°57'20 4.0
2017-Mar-16 01:18N 43°23' W 001°56'6 0.8
2017-Mar-15 17:29N 43°29' W 002°00'5 4.8
2017-Mar-15 16:30N 43°33' W 002°01'  

Dump ship's entire track history